sensor_id;sensor_type;location;lat;lon;timestamp;P1;durP1;ratioP1;P2;durP2;ratioP2
52692;SDS011;68218;51.012;-1.648;2024-02-21T00:02:03;22.45;;;4.10;;
52692;SDS011;68218;51.012;-1.648;2024-02-21T00:04:29;17.73;;;3.63;;
52692;SDS011;68218;51.012;-1.648;2024-02-21T00:06:54;20.08;;;4.03;;
52692;SDS011;68218;51.012;-1.648;2024-02-21T00:09:20;21.20;;;3.80;;
52692;SDS011;68218;51.012;-1.648;2024-02-21T00:11:45;20.98;;;4.03;;
52692;SDS011;68218;51.012;-1.648;2024-02-21T00:14:11;19.30;;;4.45;;
52692;SDS011;68218;51.012;-1.648;2024-02-21T00:16:36;19.00;;;3.90;;
52692;SDS011;68218;51.012;-1.648;2024-02-21T00:19:01;19.50;;;3.55;;
52692;SDS011;68218;51.012;-1.648;2024-02-21T00:21:27;27.25;;;4.18;;
52692;SDS011;68218;51.012;-1.648;2024-02-21T00:23:52;21.13;;;3.92;;
52692;SDS011;68218;51.012;-1.648;2024-02-21T00:26:17;23.55;;;4.28;;
52692;SDS011;68218;51.012;-1.648;2024-02-21T00:28:43;18.58;;;3.70;;
52692;SDS011;68218;51.012;-1.648;2024-02-21T00:31:08;21.15;;;4.20;;
52692;SDS011;68218;51.012;-1.648;2024-02-21T00:33:33;17.98;;;4.32;;
52692;SDS011;68218;51.012;-1.648;2024-02-21T00:35:59;20.85;;;4.10;;
52692;SDS011;68218;51.012;-1.648;2024-02-21T00:38:24;16.67;;;4.05;;
52692;SDS011;68218;51.012;-1.648;2024-02-21T00:40:49;22.92;;;4.75;;
52692;SDS011;68218;51.012;-1.648;2024-02-21T00:43:15;18.58;;;4.45;;
52692;SDS011;68218;51.012;-1.648;2024-02-21T00:45:40;23.45;;;5.00;;
52692;SDS011;68218;51.012;-1.648;2024-02-21T00:48:06;17.65;;;4.82;;
52692;SDS011;68218;51.012;-1.648;2024-02-21T00:50:31;17.80;;;3.88;;
52692;SDS011;68218;51.012;-1.648;2024-02-21T00:52:57;23.10;;;4.45;;
52692;SDS011;68218;51.012;-1.648;2024-02-21T00:55:22;20.35;;;4.00;;
52692;SDS011;68218;51.012;-1.648;2024-02-21T00:57:48;20.40;;;5.00;;
52692;SDS011;68218;51.012;-1.648;2024-02-21T01:00:13;22.75;;;4.15;;
52692;SDS011;68218;51.012;-1.648;2024-02-21T01:02:39;14.32;;;4.20;;
52692;SDS011;68218;51.012;-1.648;2024-02-21T01:05:04;16.23;;;3.85;;
52692;SDS011;68218;51.012;-1.648;2024-02-21T01:07:30;17.90;;;4.47;;
52692;SDS011;68218;51.012;-1.648;2024-02-21T01:09:55;16.92;;;3.97;;
52692;SDS011;68218;51.012;-1.648;2024-02-21T01:12:21;18.63;;;3.35;;
52692;SDS011;68218;51.012;-1.648;2024-02-21T01:14:46;12.10;;;3.47;;
52692;SDS011;68218;51.012;-1.648;2024-02-21T01:17:12;19.48;;;3.45;;
52692;SDS011;68218;51.012;-1.648;2024-02-21T01:19:37;22.30;;;3.65;;
52692;SDS011;68218;51.012;-1.648;2024-02-21T01:22:03;16.20;;;3.90;;
52692;SDS011;68218;51.012;-1.648;2024-02-21T01:24:29;17.83;;;3.60;;
52692;SDS011;68218;51.012;-1.648;2024-02-21T01:26:54;15.30;;;3.42;;
52692;SDS011;68218;51.012;-1.648;2024-02-21T01:29:20;19.23;;;3.63;;
52692;SDS011;68218;51.012;-1.648;2024-02-21T01:31:45;15.85;;;3.53;;
52692;SDS011;68218;51.012;-1.648;2024-02-21T01:34:10;16.70;;;3.63;;
52692;SDS011;68218;51.012;-1.648;2024-02-21T01:36:36;14.50;;;3.78;;
52692;SDS011;68218;51.012;-1.648;2024-02-21T01:39:01;17.08;;;3.72;;
52692;SDS011;68218;51.012;-1.648;2024-02-21T01:41:26;20.75;;;4.03;;
52692;SDS011;68218;51.012;-1.648;2024-02-21T01:43:54;18.35;;;3.92;;
52692;SDS011;68218;51.012;-1.648;2024-02-21T01:46:20;20.60;;;3.17;;
52692;SDS011;68218;51.012;-1.648;2024-02-21T01:48:45;19.98;;;3.53;;
52692;SDS011;68218;51.012;-1.648;2024-02-21T01:51:11;18.42;;;3.20;;
52692;SDS011;68218;51.012;-1.648;2024-02-21T01:53:38;20.98;;;3.40;;
52692;SDS011;68218;51.012;-1.648;2024-02-21T01:56:07;21.05;;;3.33;;
52692;SDS011;68218;51.012;-1.648;2024-02-21T01:58:34;25.27;;;4.35;;
52692;SDS011;68218;51.012;-1.648;2024-02-21T02:01:02;19.05;;;3.25;;
52692;SDS011;68218;51.012;-1.648;2024-02-21T02:03:28;20.38;;;3.85;;
52692;SDS011;68218;51.012;-1.648;2024-02-21T02:05:54;24.02;;;3.80;;
52692;SDS011;68218;51.012;-1.648;2024-02-21T02:08:20;22.88;;;3.97;;
52692;SDS011;68218;51.012;-1.648;2024-02-21T02:10:47;22.90;;;4.13;;
52692;SDS011;68218;51.012;-1.648;2024-02-21T02:13:13;21.95;;;4.05;;
52692;SDS011;68218;51.012;-1.648;2024-02-21T02:15:39;22.52;;;4.00;;
52692;SDS011;68218;51.012;-1.648;2024-02-21T02:18:12;18.77;;;3.08;;
52692;SDS011;68218;51.012;-1.648;2024-02-21T02:20:39;23.27;;;3.85;;
52692;SDS011;68218;51.012;-1.648;2024-02-21T02:23:12;32.47;;;4.70;;
52692;SDS011;68218;51.012;-1.648;2024-02-21T02:28:17;18.92;;;4.13;;
52692;SDS011;68218;51.012;-1.648;2024-02-21T02:30:42;25.27;;;4.10;;
52692;SDS011;68218;51.012;-1.648;2024-02-21T02:33:08;23.08;;;3.97;;
52692;SDS011;68218;51.012;-1.648;2024-02-21T02:35:34;24.20;;;4.18;;
52692;SDS011;68218;51.012;-1.648;2024-02-21T02:38:01;21.73;;;3.25;;
52692;SDS011;68218;51.012;-1.648;2024-02-21T02:40:27;25.98;;;3.90;;
52692;SDS011;68218;51.012;-1.648;2024-02-21T02:42:52;29.90;;;3.63;;
52692;SDS011;68218;51.012;-1.648;2024-02-21T02:45:20;28.63;;;4.32;;
52692;SDS011;68218;51.012;-1.648;2024-02-21T02:47:46;27.80;;;3.83;;
52692;SDS011;68218;51.012;-1.648;2024-02-21T02:50:12;19.58;;;4.10;;
52692;SDS011;68218;51.012;-1.648;2024-02-21T02:52:37;30.40;;;4.47;;
52692;SDS011;68218;51.012;-1.648;2024-02-21T02:55:03;24.98;;;4.00;;
52692;SDS011;68218;51.012;-1.648;2024-02-21T02:57:29;21.85;;;3.67;;
52692;SDS011;68218;51.012;-1.648;2024-02-21T02:59:54;23.45;;;4.65;;
52692;SDS011;68218;51.012;-1.648;2024-02-21T03:02:20;20.27;;;3.38;;
52692;SDS011;68218;51.012;-1.648;2024-02-21T03:04:45;23.40;;;3.53;;
52692;SDS011;68218;51.012;-1.648;2024-02-21T03:07:11;20.75;;;4.22;;
52692;SDS011;68218;51.012;-1.648;2024-02-21T03:09:39;22.90;;;4.47;;
52692;SDS011;68218;51.012;-1.648;2024-02-21T03:12:08;21.30;;;3.85;;
52692;SDS011;68218;51.012;-1.648;2024-02-21T03:14:34;22.17;;;4.03;;
52692;SDS011;68218;51.012;-1.648;2024-02-21T03:17:00;21.52;;;4.25;;
52692;SDS011;68218;51.012;-1.648;2024-02-21T03:19:26;21.98;;;3.38;;
52692;SDS011;68218;51.012;-1.648;2024-02-21T03:21:51;25.55;;;3.97;;
52692;SDS011;68218;51.012;-1.648;2024-02-21T03:24:18;18.92;;;3.88;;
52692;SDS011;68218;51.012;-1.648;2024-02-21T03:26:44;19.85;;;3.50;;
52692;SDS011;68218;51.012;-1.648;2024-02-21T03:29:10;22.75;;;3.95;;
52692;SDS011;68218;51.012;-1.648;2024-02-21T03:31:36;24.85;;;4.00;;
52692;SDS011;68218;51.012;-1.648;2024-02-21T03:34:02;23.70;;;3.83;;
52692;SDS011;68218;51.012;-1.648;2024-02-21T03:36:27;22.77;;;3.97;;
52692;SDS011;68218;51.012;-1.648;2024-02-21T03:38:54;21.58;;;3.63;;
52692;SDS011;68218;51.012;-1.648;2024-02-21T03:41:19;18.80;;;3.55;;
52692;SDS011;68218;51.012;-1.648;2024-02-21T03:43:45;20.08;;;3.75;;
52692;SDS011;68218;51.012;-1.648;2024-02-21T03:46:10;19.10;;;3.70;;
52692;SDS011;68218;51.012;-1.648;2024-02-21T03:48:35;27.38;;;4.28;;
52692;SDS011;68218;51.012;-1.648;2024-02-21T03:51:01;25.58;;;3.58;;
52692;SDS011;68218;51.012;-1.648;2024-02-21T03:53:27;20.88;;;3.45;;
52692;SDS011;68218;51.012;-1.648;2024-02-21T03:55:53;18.52;;;3.78;;
52692;SDS011;68218;51.012;-1.648;2024-02-21T03:58:19;20.98;;;3.33;;
52692;SDS011;68218;51.012;-1.648;2024-02-21T04:00:45;19.63;;;3.20;;
52692;SDS011;68218;51.012;-1.648;2024-02-21T04:03:10;24.20;;;3.63;;
52692;SDS011;68218;51.012;-1.648;2024-02-21T04:05:35;23.27;;;3.75;;
52692;SDS011;68218;51.012;-1.648;2024-02-21T04:08:04;17.27;;;3.50;;
52692;SDS011;68218;51.012;-1.648;2024-02-21T04:10:30;20.48;;;3.55;;
52692;SDS011;68218;51.012;-1.648;2024-02-21T04:12:55;17.30;;;3.25;;
52692;SDS011;68218;51.012;-1.648;2024-02-21T04:15:20;31.17;;;3.97;;
52692;SDS011;68218;51.012;-1.648;2024-02-21T04:17:46;19.95;;;3.35;;
52692;SDS011;68218;51.012;-1.648;2024-02-21T04:20:14;26.70;;;3.40;;
52692;SDS011;68218;51.012;-1.648;2024-02-21T04:22:42;21.50;;;3.10;;
52692;SDS011;68218;51.012;-1.648;2024-02-21T04:25:08;25.00;;;3.38;;
52692;SDS011;68218;51.012;-1.648;2024-02-21T04:27:34;19.42;;;3.30;;
52692;SDS011;68218;51.012;-1.648;2024-02-21T04:29:59;19.27;;;3.83;;
52692;SDS011;68218;51.012;-1.648;2024-02-21T04:32:24;20.52;;;3.83;;
52692;SDS011;68218;51.012;-1.648;2024-02-21T04:34:52;19.67;;;3.55;;
52692;SDS011;68218;51.012;-1.648;2024-02-21T04:37:17;17.40;;;3.60;;
52692;SDS011;68218;51.012;-1.648;2024-02-21T04:39:43;16.13;;;3.22;;
52692;SDS011;68218;51.012;-1.648;2024-02-21T04:42:09;23.85;;;3.70;;
52692;SDS011;68218;51.012;-1.648;2024-02-21T04:44:34;22.27;;;3.28;;
52692;SDS011;68218;51.012;-1.648;2024-02-21T04:46:59;21.13;;;3.80;;
52692;SDS011;68218;51.012;-1.648;2024-02-21T04:49:25;19.42;;;3.72;;
52692;SDS011;68218;51.012;-1.648;2024-02-21T04:51:51;23.92;;;4.47;;
52692;SDS011;68218;51.012;-1.648;2024-02-21T04:54:16;21.90;;;4.43;;
52692;SDS011;68218;51.012;-1.648;2024-02-21T04:56:42;18.08;;;3.90;;
52692;SDS011;68218;51.012;-1.648;2024-02-21T04:59:07;23.33;;;4.45;;
52692;SDS011;68218;51.012;-1.648;2024-02-21T05:01:32;23.95;;;4.05;;
52692;SDS011;68218;51.012;-1.648;2024-02-21T05:03:58;25.98;;;4.47;;
52692;SDS011;68218;51.012;-1.648;2024-02-21T05:06:23;23.58;;;3.92;;
52692;SDS011;68218;51.012;-1.648;2024-02-21T05:08:48;16.25;;;4.47;;
52692;SDS011;68218;51.012;-1.648;2024-02-21T05:11:14;18.15;;;4.35;;
52692;SDS011;68218;51.012;-1.648;2024-02-21T05:13:39;19.92;;;3.50;;
52692;SDS011;68218;51.012;-1.648;2024-02-21T05:16:05;24.33;;;4.00;;
52692;SDS011;68218;51.012;-1.648;2024-02-21T05:18:31;19.35;;;3.55;;
52692;SDS011;68218;51.012;-1.648;2024-02-21T05:20:56;26.67;;;4.63;;
52692;SDS011;68218;51.012;-1.648;2024-02-21T05:23:22;22.05;;;3.50;;
52692;SDS011;68218;51.012;-1.648;2024-02-21T05:25:47;16.92;;;3.10;;
52692;SDS011;68218;51.012;-1.648;2024-02-21T05:28:12;11.13;;;3.28;;
52692;SDS011;68218;51.012;-1.648;2024-02-21T05:30:38;19.80;;;3.47;;
52692;SDS011;68218;51.012;-1.648;2024-02-21T05:33:06;21.27;;;3.65;;
52692;SDS011;68218;51.012;-1.648;2024-02-21T05:35:32;19.90;;;3.10;;
52692;SDS011;68218;51.012;-1.648;2024-02-21T05:37:57;14.38;;;3.10;;
52692;SDS011;68218;51.012;-1.648;2024-02-21T05:40:24;20.80;;;3.58;;
52692;SDS011;68218;51.012;-1.648;2024-02-21T05:42:50;18.70;;;4.32;;
52692;SDS011;68218;51.012;-1.648;2024-02-21T05:45:16;20.45;;;3.72;;
52692;SDS011;68218;51.012;-1.648;2024-02-21T05:47:42;23.13;;;4.18;;
52692;SDS011;68218;51.012;-1.648;2024-02-21T05:50:07;14.98;;;3.13;;
52692;SDS011;68218;51.012;-1.648;2024-02-21T05:52:33;22.52;;;3.95;;
52692;SDS011;68218;51.012;-1.648;2024-02-21T05:54:59;28.08;;;4.60;;
52692;SDS011;68218;51.012;-1.648;2024-02-21T05:57:24;18.58;;;4.40;;
52692;SDS011;68218;51.012;-1.648;2024-02-21T05:59:49;26.00;;;4.40;;
52692;SDS011;68218;51.012;-1.648;2024-02-21T06:02:15;22.55;;;4.10;;
52692;SDS011;68218;51.012;-1.648;2024-02-21T06:04:40;18.48;;;4.63;;
52692;SDS011;68218;51.012;-1.648;2024-02-21T06:07:07;21.35;;;4.05;;
52692;SDS011;68218;51.012;-1.648;2024-02-21T06:09:32;24.73;;;4.50;;
52692;SDS011;68218;51.012;-1.648;2024-02-21T06:11:58;24.30;;;4.38;;
52692;SDS011;68218;51.012;-1.648;2024-02-21T06:14:23;20.63;;;4.55;;
52692;SDS011;68218;51.012;-1.648;2024-02-21T06:16:48;20.75;;;5.20;;
52692;SDS011;68218;51.012;-1.648;2024-02-21T06:19:14;23.80;;;5.13;;
52692;SDS011;68218;51.012;-1.648;2024-02-21T06:21:39;23.52;;;4.90;;
52692;SDS011;68218;51.012;-1.648;2024-02-21T06:24:05;26.80;;;4.70;;
52692;SDS011;68218;51.012;-1.648;2024-02-21T06:26:30;24.08;;;4.55;;
52692;SDS011;68218;51.012;-1.648;2024-02-21T06:28:55;25.73;;;5.28;;
52692;SDS011;68218;51.012;-1.648;2024-02-21T06:31:21;22.13;;;4.60;;
52692;SDS011;68218;51.012;-1.648;2024-02-21T06:33:46;22.70;;;4.88;;
52692;SDS011;68218;51.012;-1.648;2024-02-21T06:36:11;24.48;;;4.70;;
52692;SDS011;68218;51.012;-1.648;2024-02-21T06:38:37;23.42;;;5.90;;
52692;SDS011;68218;51.012;-1.648;2024-02-21T06:41:02;17.60;;;4.50;;
52692;SDS011;68218;51.012;-1.648;2024-02-21T06:43:28;18.25;;;5.00;;
52692;SDS011;68218;51.012;-1.648;2024-02-21T06:45:53;17.30;;;4.25;;
52692;SDS011;68218;51.012;-1.648;2024-02-21T06:48:20;20.67;;;4.55;;
52692;SDS011;68218;51.012;-1.648;2024-02-21T06:50:45;24.45;;;4.50;;
52692;SDS011;68218;51.012;-1.648;2024-02-21T06:53:10;26.77;;;4.70;;
52692;SDS011;68218;51.012;-1.648;2024-02-21T06:55:36;25.48;;;4.95;;
52692;SDS011;68218;51.012;-1.648;2024-02-21T06:58:01;18.25;;;4.45;;
52692;SDS011;68218;51.012;-1.648;2024-02-21T07:00:28;21.23;;;4.60;;
52692;SDS011;68218;51.012;-1.648;2024-02-21T07:02:56;24.58;;;5.75;;
52692;SDS011;68218;51.012;-1.648;2024-02-21T07:05:21;27.73;;;5.10;;
52692;SDS011;68218;51.012;-1.648;2024-02-21T07:07:47;26.20;;;5.13;;
52692;SDS011;68218;51.012;-1.648;2024-02-21T07:10:12;14.05;;;4.28;;
52692;SDS011;68218;51.012;-1.648;2024-02-21T07:12:37;21.02;;;5.47;;
52692;SDS011;68218;51.012;-1.648;2024-02-21T07:15:07;20.15;;;4.63;;
52692;SDS011;68218;51.012;-1.648;2024-02-21T07:17:32;25.15;;;4.47;;
52692;SDS011;68218;51.012;-1.648;2024-02-21T07:19:57;22.98;;;4.07;;
52692;SDS011;68218;51.012;-1.648;2024-02-21T07:22:24;26.25;;;4.97;;
52692;SDS011;68218;51.012;-1.648;2024-02-21T07:24:49;22.42;;;4.05;;
52692;SDS011;68218;51.012;-1.648;2024-02-21T07:27:15;19.42;;;4.22;;
52692;SDS011;68218;51.012;-1.648;2024-02-21T07:29:40;24.48;;;4.15;;
52692;SDS011;68218;51.012;-1.648;2024-02-21T07:32:06;20.05;;;3.60;;
52692;SDS011;68218;51.012;-1.648;2024-02-21T07:34:31;20.48;;;3.63;;
52692;SDS011;68218;51.012;-1.648;2024-02-21T07:36:57;15.55;;;3.55;;
52692;SDS011;68218;51.012;-1.648;2024-02-21T07:39:22;21.92;;;3.75;;
52692;SDS011;68218;51.012;-1.648;2024-02-21T07:41:48;23.13;;;3.95;;
52692;SDS011;68218;51.012;-1.648;2024-02-21T07:44:14;16.60;;;3.40;;
52692;SDS011;68218;51.012;-1.648;2024-02-21T07:46:40;15.68;;;2.90;;
52692;SDS011;68218;51.012;-1.648;2024-02-21T07:49:05;18.08;;;3.60;;
52692;SDS011;68218;51.012;-1.648;2024-02-21T07:51:31;15.02;;;2.55;;
52692;SDS011;68218;51.012;-1.648;2024-02-21T07:53:56;12.43;;;3.05;;
52692;SDS011;68218;51.012;-1.648;2024-02-21T07:56:21;19.80;;;2.83;;
52692;SDS011;68218;51.012;-1.648;2024-02-21T07:58:47;15.35;;;3.13;;
52692;SDS011;68218;51.012;-1.648;2024-02-21T08:01:17;19.38;;;3.47;;
52692;SDS011;68218;51.012;-1.648;2024-02-21T08:03:44;16.90;;;2.83;;
52692;SDS011;68218;51.012;-1.648;2024-02-21T08:06:12;14.48;;;3.00;;
52692;SDS011;68218;51.012;-1.648;2024-02-21T08:08:38;11.82;;;2.85;;
52692;SDS011;68218;51.012;-1.648;2024-02-21T08:11:04;16.40;;;3.03;;
52692;SDS011;68218;51.012;-1.648;2024-02-21T08:13:29;14.93;;;2.60;;
52692;SDS011;68218;51.012;-1.648;2024-02-21T08:15:55;17.13;;;3.28;;
52692;SDS011;68218;51.012;-1.648;2024-02-21T08:18:22;16.27;;;3.20;;
52692;SDS011;68218;51.012;-1.648;2024-02-21T08:20:47;13.43;;;2.75;;
52692;SDS011;68218;51.012;-1.648;2024-02-21T08:23:15;16.77;;;2.70;;
52692;SDS011;68218;51.012;-1.648;2024-02-21T08:25:41;16.85;;;2.95;;
52692;SDS011;68218;51.012;-1.648;2024-02-21T08:28:06;11.68;;;2.50;;
52692;SDS011;68218;51.012;-1.648;2024-02-21T08:30:33;16.42;;;2.83;;
52692;SDS011;68218;51.012;-1.648;2024-02-21T08:32:58;14.07;;;2.80;;
52692;SDS011;68218;51.012;-1.648;2024-02-21T08:35:24;13.27;;;2.67;;
52692;SDS011;68218;51.012;-1.648;2024-02-21T08:37:49;11.68;;;2.78;;
52692;SDS011;68218;51.012;-1.648;2024-02-21T08:40:15;12.43;;;2.50;;
52692;SDS011;68218;51.012;-1.648;2024-02-21T08:42:44;15.88;;;2.95;;
52692;SDS011;68218;51.012;-1.648;2024-02-21T08:45:10;14.50;;;2.50;;
52692;SDS011;68218;51.012;-1.648;2024-02-21T08:47:35;16.58;;;3.10;;
52692;SDS011;68218;51.012;-1.648;2024-02-21T08:50:04;17.95;;;2.70;;
52692;SDS011;68218;51.012;-1.648;2024-02-21T08:52:30;11.60;;;2.63;;
52692;SDS011;68218;51.012;-1.648;2024-02-21T08:54:56;13.25;;;3.17;;
52692;SDS011;68218;51.012;-1.648;2024-02-21T08:57:21;16.58;;;2.85;;
52692;SDS011;68218;51.012;-1.648;2024-02-21T08:59:47;19.98;;;3.50;;
52692;SDS011;68218;51.012;-1.648;2024-02-21T09:02:12;15.77;;;2.88;;
52692;SDS011;68218;51.012;-1.648;2024-02-21T09:04:38;14.45;;;2.50;;
52692;SDS011;68218;51.012;-1.648;2024-02-21T09:07:03;16.88;;;2.63;;
52692;SDS011;68218;51.012;-1.648;2024-02-21T09:09:29;17.98;;;2.75;;
52692;SDS011;68218;51.012;-1.648;2024-02-21T09:11:54;12.88;;;2.28;;
52692;SDS011;68218;51.012;-1.648;2024-02-21T09:14:19;11.88;;;2.60;;
52692;SDS011;68218;51.012;-1.648;2024-02-21T09:16:45;17.58;;;2.40;;
52692;SDS011;68218;51.012;-1.648;2024-02-21T09:19:10;22.45;;;2.88;;
52692;SDS011;68218;51.012;-1.648;2024-02-21T09:21:37;11.75;;;2.35;;
52692;SDS011;68218;51.012;-1.648;2024-02-21T09:24:03;17.15;;;2.92;;
52692;SDS011;68218;51.012;-1.648;2024-02-21T09:26:30;13.20;;;2.25;;
52692;SDS011;68218;51.012;-1.648;2024-02-21T09:28:55;17.75;;;2.75;;
52692;SDS011;68218;51.012;-1.648;2024-02-21T09:31:20;14.73;;;3.05;;
52692;SDS011;68218;51.012;-1.648;2024-02-21T09:33:46;13.50;;;2.45;;
52692;SDS011;68218;51.012;-1.648;2024-02-21T09:36:11;11.73;;;2.65;;
52692;SDS011;68218;51.012;-1.648;2024-02-21T09:38:36;14.38;;;2.28;;
52692;SDS011;68218;51.012;-1.648;2024-02-21T09:41:25;16.95;;;2.45;;
52692;SDS011;68218;51.012;-1.648;2024-02-21T09:43:51;16.85;;;2.78;;
52692;SDS011;68218;51.012;-1.648;2024-02-21T09:46:18;12.23;;;2.28;;
52692;SDS011;68218;51.012;-1.648;2024-02-21T09:51:32;17.63;;;2.85;;
52692;SDS011;68218;51.012;-1.648;2024-02-21T09:53:59;17.05;;;2.55;;
52692;SDS011;68218;51.012;-1.648;2024-02-21T09:56:26;10.60;;;2.13;;
52692;SDS011;68218;51.012;-1.648;2024-02-21T09:58:51;14.35;;;2.40;;
52692;SDS011;68218;51.012;-1.648;2024-02-21T10:01:16;11.65;;;1.98;;
52692;SDS011;68218;51.012;-1.648;2024-02-21T10:03:42;14.57;;;2.42;;
52692;SDS011;68218;51.012;-1.648;2024-02-21T10:06:08;10.57;;;1.70;;
52692;SDS011;68218;51.012;-1.648;2024-02-21T10:08:34;13.45;;;1.98;;
52692;SDS011;68218;51.012;-1.648;2024-02-21T10:10:59;11.20;;;1.80;;
52692;SDS011;68218;51.012;-1.648;2024-02-21T10:13:26;12.65;;;1.70;;
52692;SDS011;68218;51.012;-1.648;2024-02-21T10:16:05;10.40;;;1.67;;
52692;SDS011;68218;51.012;-1.648;2024-02-21T10:18:32;11.70;;;2.22;;
52692;SDS011;68218;51.012;-1.648;2024-02-21T10:21:02;14.60;;;2.15;;
52692;SDS011;68218;51.012;-1.648;2024-02-21T10:23:44;11.82;;;2.75;;
52692;SDS011;68218;51.012;-1.648;2024-02-21T10:26:10;13.05;;;1.75;;
52692;SDS011;68218;51.012;-1.648;2024-02-21T10:28:36;9.60;;;1.52;;
52692;SDS011;68218;51.012;-1.648;2024-02-21T10:31:06;8.15;;;1.35;;
52692;SDS011;68218;51.012;-1.648;2024-02-21T10:33:32;12.85;;;1.45;;
52692;SDS011;68218;51.012;-1.648;2024-02-21T10:36:05;9.77;;;1.73;;
52692;SDS011;68218;51.012;-1.648;2024-02-21T10:38:38;13.20;;;1.70;;
52692;SDS011;68218;51.012;-1.648;2024-02-21T10:41:04;11.43;;;1.80;;
52692;SDS011;68218;51.012;-1.648;2024-02-21T10:43:39;10.57;;;1.70;;
52692;SDS011;68218;51.012;-1.648;2024-02-21T10:46:08;11.43;;;1.40;;
52692;SDS011;68218;51.012;-1.648;2024-02-21T10:48:38;11.80;;;1.52;;
52692;SDS011;68218;51.012;-1.648;2024-02-21T10:51:17;11.20;;;1.50;;
52692;SDS011;68218;51.012;-1.648;2024-02-21T10:56:34;12.80;;;1.83;;
52692;SDS011;68218;51.012;-1.648;2024-02-21T10:59:06;11.07;;;1.40;;
52692;SDS011;68218;51.012;-1.648;2024-02-21T11:01:32;11.10;;;1.63;;
52692;SDS011;68218;51.012;-1.648;2024-02-21T11:04:04;11.50;;;1.35;;
52692;SDS011;68218;51.012;-1.648;2024-02-21T11:06:32;10.82;;;1.60;;
52692;SDS011;68218;51.012;-1.648;2024-02-21T11:09:08;9.55;;;1.70;;
52692;SDS011;68218;51.012;-1.648;2024-02-21T11:16:38;8.38;;;1.10;;
52692;SDS011;68218;51.012;-1.648;2024-02-21T11:21:34;7.20;;;1.10;;
52692;SDS011;68218;51.012;-1.648;2024-02-21T11:24:03;8.50;;;0.88;;
52692;SDS011;68218;51.012;-1.648;2024-02-21T11:26:29;6.28;;;0.70;;
52692;SDS011;68218;51.012;-1.648;2024-02-21T11:28:59;9.23;;;1.10;;
52692;SDS011;68218;51.012;-1.648;2024-02-21T11:31:26;9.45;;;1.10;;
52692;SDS011;68218;51.012;-1.648;2024-02-21T11:33:55;12.40;;;1.35;;
52692;SDS011;68218;51.012;-1.648;2024-02-21T11:36:24;8.65;;;1.20;;
52692;SDS011;68218;51.012;-1.648;2024-02-21T11:38:50;7.80;;;1.08;;
52692;SDS011;68218;51.012;-1.648;2024-02-21T11:41:16;8.23;;;1.15;;
52692;SDS011;68218;51.012;-1.648;2024-02-21T11:43:41;6.03;;;0.88;;
52692;SDS011;68218;51.012;-1.648;2024-02-21T11:46:07;9.77;;;0.90;;
52692;SDS011;68218;51.012;-1.648;2024-02-21T11:48:32;3.53;;;0.82;;
52692;SDS011;68218;51.012;-1.648;2024-02-21T11:50:57;8.18;;;1.10;;
52692;SDS011;68218;51.012;-1.648;2024-02-21T11:53:23;10.88;;;1.42;;
52692;SDS011;68218;51.012;-1.648;2024-02-21T11:55:49;10.07;;;1.35;;
52692;SDS011;68218;51.012;-1.648;2024-02-21T11:58:15;8.13;;;1.00;;
52692;SDS011;68218;51.012;-1.648;2024-02-21T12:00:41;9.43;;;0.90;;
52692;SDS011;68218;51.012;-1.648;2024-02-21T12:03:06;10.82;;;0.93;;
52692;SDS011;68218;51.012;-1.648;2024-02-21T12:05:32;6.75;;;0.70;;
52692;SDS011;68218;51.012;-1.648;2024-02-21T12:07:58;8.98;;;1.05;;
52692;SDS011;68218;51.012;-1.648;2024-02-21T12:10:23;7.45;;;0.95;;
52692;SDS011;68218;51.012;-1.648;2024-02-21T12:12:51;6.65;;;0.85;;
52692;SDS011;68218;51.012;-1.648;2024-02-21T12:15:17;11.75;;;1.20;;
52692;SDS011;68218;51.012;-1.648;2024-02-21T12:17:43;11.73;;;1.08;;
52692;SDS011;68218;51.012;-1.648;2024-02-21T12:20:09;6.20;;;0.82;;
52692;SDS011;68218;51.012;-1.648;2024-02-21T12:22:36;9.38;;;0.90;;
52692;SDS011;68218;51.012;-1.648;2024-02-21T12:25:15;8.75;;;0.88;;
52692;SDS011;68218;51.012;-1.648;2024-02-21T12:27:42;9.75;;;0.90;;
52692;SDS011;68218;51.012;-1.648;2024-02-21T12:30:08;7.65;;;1.13;;
52692;SDS011;68218;51.012;-1.648;2024-02-21T12:32:35;3.92;;;0.65;;
52692;SDS011;68218;51.012;-1.648;2024-02-21T12:35:00;4.97;;;0.85;;
52692;SDS011;68218;51.012;-1.648;2024-02-21T12:37:26;8.32;;;1.10;;
52692;SDS011;68218;51.012;-1.648;2024-02-21T12:39:51;7.50;;;1.08;;
52692;SDS011;68218;51.012;-1.648;2024-02-21T12:42:16;6.95;;;0.90;;
52692;SDS011;68218;51.012;-1.648;2024-02-21T12:44:42;6.78;;;0.77;;
52692;SDS011;68218;51.012;-1.648;2024-02-21T12:47:07;7.38;;;1.48;;
52692;SDS011;68218;51.012;-1.648;2024-02-21T12:49:33;10.10;;;1.20;;
52692;SDS011;68218;51.012;-1.648;2024-02-21T12:51:58;12.13;;;1.23;;
52692;SDS011;68218;51.012;-1.648;2024-02-21T12:54:24;8.88;;;1.00;;
52692;SDS011;68218;51.012;-1.648;2024-02-21T12:56:49;9.60;;;1.17;;
52692;SDS011;68218;51.012;-1.648;2024-02-21T12:59:15;5.55;;;0.88;;
52692;SDS011;68218;51.012;-1.648;2024-02-21T13:01:40;4.93;;;0.60;;
52692;SDS011;68218;51.012;-1.648;2024-02-21T13:04:05;10.50;;;1.20;;
52692;SDS011;68218;51.012;-1.648;2024-02-21T13:06:31;9.25;;;0.93;;
52692;SDS011;68218;51.012;-1.648;2024-02-21T13:08:56;7.35;;;1.00;;
52692;SDS011;68218;51.012;-1.648;2024-02-21T13:11:21;8.77;;;1.00;;
52692;SDS011;68218;51.012;-1.648;2024-02-21T13:13:47;11.48;;;0.95;;
52692;SDS011;68218;51.012;-1.648;2024-02-21T13:16:13;12.63;;;2.03;;
52692;SDS011;68218;51.012;-1.648;2024-02-21T13:18:38;7.75;;;1.00;;
52692;SDS011;68218;51.012;-1.648;2024-02-21T13:21:05;7.63;;;1.10;;
52692;SDS011;68218;51.012;-1.648;2024-02-21T13:23:31;11.32;;;1.58;;
52692;SDS011;68218;51.012;-1.648;2024-02-21T13:25:56;6.47;;;1.02;;
52692;SDS011;68218;51.012;-1.648;2024-02-21T13:28:21;8.05;;;0.80;;
52692;SDS011;68218;51.012;-1.648;2024-02-21T13:30:47;6.93;;;0.95;;
52692;SDS011;68218;51.012;-1.648;2024-02-21T13:33:12;4.88;;;1.00;;
52692;SDS011;68218;51.012;-1.648;2024-02-21T13:35:38;9.15;;;0.95;;
52692;SDS011;68218;51.012;-1.648;2024-02-21T13:38:03;9.90;;;1.15;;
52692;SDS011;68218;51.012;-1.648;2024-02-21T13:40:29;5.60;;;1.05;;
52692;SDS011;68218;51.012;-1.648;2024-02-21T13:42:54;7.20;;;0.95;;
52692;SDS011;68218;51.012;-1.648;2024-02-21T13:45:20;7.10;;;1.15;;
52692;SDS011;68218;51.012;-1.648;2024-02-21T13:47:45;5.88;;;1.27;;
52692;SDS011;68218;51.012;-1.648;2024-02-21T13:50:11;10.80;;;1.67;;
52692;SDS011;68218;51.012;-1.648;2024-02-21T13:52:40;14.73;;;1.90;;
52692;SDS011;68218;51.012;-1.648;2024-02-21T13:55:05;7.65;;;1.23;;
52692;SDS011;68218;51.012;-1.648;2024-02-21T13:57:33;11.30;;;1.40;;
52692;SDS011;68218;51.012;-1.648;2024-02-21T13:59:59;8.02;;;0.95;;
52692;SDS011;68218;51.012;-1.648;2024-02-21T14:02:25;9.82;;;1.10;;
52692;SDS011;68218;51.012;-1.648;2024-02-21T14:04:50;13.18;;;1.08;;
52692;SDS011;68218;51.012;-1.648;2024-02-21T14:07:15;6.10;;;1.10;;
52692;SDS011;68218;51.012;-1.648;2024-02-21T14:09:42;6.03;;;0.90;;
52692;SDS011;68218;51.012;-1.648;2024-02-21T14:12:07;8.15;;;0.93;;
52692;SDS011;68218;51.012;-1.648;2024-02-21T14:14:34;5.85;;;1.13;;
52692;SDS011;68218;51.012;-1.648;2024-02-21T14:17:00;4.90;;;0.90;;
52692;SDS011;68218;51.012;-1.648;2024-02-21T14:19:26;9.45;;;1.17;;
52692;SDS011;68218;51.012;-1.648;2024-02-21T14:21:52;4.55;;;0.82;;
52692;SDS011;68218;51.012;-1.648;2024-02-21T14:24:18;7.35;;;0.90;;
52692;SDS011;68218;51.012;-1.648;2024-02-21T14:26:43;7.43;;;1.33;;
52692;SDS011;68218;51.012;-1.648;2024-02-21T14:29:08;9.13;;;1.02;;
52692;SDS011;68218;51.012;-1.648;2024-02-21T14:31:34;7.13;;;1.10;;
52692;SDS011;68218;51.012;-1.648;2024-02-21T14:33:59;4.07;;;0.77;;